Time;durP1;ratioP1;P1;durP2;ratioP2;P2;SDS_P1;SDS_P2;PMS_P1;PMS_P2;Temp;Humidity;BMP_temperature;BMP_pressure;BME280_temperature;BME280_humidity;BME280_pressure;Samples;Min_cycle;Max_cycle;Signal;HPM_P1;HPM_P2
2022/05/05 00:01:55;;;;;;;15.45;7.80;;;;;;;;;;6127110;23;20009;-91
2022/05/05 00:04:22;;;;;;;18.35;7.78;;;;;;;;;;6123441;23;20019;-91
2022/05/05 00:06:48;;;;;;;20.40;8.25;;;;;;;;;;6121768;23;20481;-91
2022/05/05 00:09:14;;;;;;;17.48;7.47;;;;;;;;;;6121350;23;20068;-90
2022/05/05 00:14:28;;;;;;;19.63;8.93;;;;;;;;;;6143684;23;20060;-90
2022/05/05 00:16:56;;;;;;;16.02;8.57;;;;;;;;;;6119761;23;20124;-92
2022/05/05 00:19:23;;;;;;;15.07;8.20;;;;;;;;;;6121613;23;20109;-91
2022/05/05 00:21:49;;;;;;;16.02;8.05;;;;;;;;;;6120806;23;20020;-90
2022/05/05 00:24:16;;;;;;;18.40;8.00;;;;;;;;;;6097801;23;20036;-91
2022/05/05 00:26:43;;;;;;;14.75;7.50;;;;;;;;;;6120767;23;20013;-91
2022/05/05 00:29:09;;;;;;;16.50;8.15;;;;;;;;;;6122388;23;20009;-90
2022/05/05 00:31:35;;;;;;;18.38;7.80;;;;;;;;;;6123362;23;20021;-91
2022/05/05 00:34:01;;;;;;;21.45;8.32;;;;;;;;;;6120638;23;20021;-91
2022/05/05 00:36:28;;;;;;;16.95;7.55;;;;;;;;;;6099678;23;20013;-92
2022/05/05 00:38:54;;;;;;;22.20;7.82;;;;;;;;;;6100657;23;20017;-90
2022/05/05 00:41:20;;;;;;;14.38;7.10;;;;;;;;;;6103495;23;20398;-89
2022/05/05 00:43:46;;;;;;;15.25;7.57;;;;;;;;;;6127348;23;20064;-89
2022/05/05 00:46:12;;;;;;;15.90;8.30;;;;;;;;;;6104069;23;20036;-89
2022/05/05 00:48:40;;;;;;;15.02;8.10;;;;;;;;;;6128201;23;20100;-90
2022/05/05 00:51:06;;;;;;;16.23;7.95;;;;;;;;;;6129670;23;20539;-90
2022/05/05 00:53:33;;;;;;;18.45;8.45;;;;;;;;;;6126753;23;20646;-90
2022/05/05 00:56:02;;;;;;;16.15;7.50;;;;;;;;;;6104806;23;20013;-89
2022/05/05 00:58:29;;;;;;;15.30;7.45;;;;;;;;;;6129466;23;20013;-90
2022/05/05 01:00:56;;;;;;;18.42;8.55;;;;;;;;;;6106499;23;20076;-91
2022/05/05 01:03:22;;;;;;;13.43;7.90;;;;;;;;;;6127860;23;20020;-90
2022/05/05 01:05:48;;;;;;;15.68;8.75;;;;;;;;;;6128691;23;20013;-90
2022/05/05 01:08:15;;;;;;;19.52;8.45;;;;;;;;;;6104611;23;20017;-90
2022/05/05 01:10:41;;;;;;;14.50;8.25;;;;;;;;;;6105207;23;20454;-91
2022/05/05 01:13:07;;;;;;;14.05;8.05;;;;;;;;;;6124496;23;20048;-91
2022/05/05 01:15:35;;;;;;;16.33;8.02;;;;;;;;;;6103436;23;20017;-91
2022/05/05 01:18:02;;;;;;;13.98;7.07;;;;;;;;;;6125423;23;20080;-90
2022/05/05 01:20:29;;;;;;;17.17;7.57;;;;;;;;;;6131594;23;20398;-90
2022/05/05 01:23:01;;;;;;;14.88;7.50;;;;;;;;;;6130585;23;20013;-90
2022/05/05 01:28:13;;;;;;;10.52;7.57;;;;;;;;;;6162846;23;20021;-90
2022/05/05 01:30:43;;;;;;;18.42;8.43;;;;;;;;;;6130897;23;20028;-90
2022/05/05 01:33:14;;;;;;;21.10;9.13;;;;;;;;;;6131625;23;20013;-90
2022/05/05 01:35:40;;;;;;;17.27;8.65;;;;;;;;;;6130202;23;20024;-90
2022/05/05 01:38:14;;;;;;;18.98;8.82;;;;;;;;;;6129494;23;20069;-90
2022/05/05 01:40:41;;;;;;;20.23;10.20;;;;;;;;;;6129676;23;20353;-91
2022/05/05 01:43:08;;;;;;;25.00;9.38;;;;;;;;;;6130140;23;20009;-90
2022/05/05 01:45:35;;;;;;;23.73;9.00;;;;;;;;;;6105213;23;20346;-92
2022/05/05 01:48:04;;;;;;;18.33;9.13;;;;;;;;;;6127029;23;20013;-91
2022/05/05 01:50:32;;;;;;;18.33;9.90;;;;;;;;;;6128914;23;20347;-90
2022/05/05 01:53:05;;;;;;;16.15;9.20;;;;;;;;;;6103114;23;20024;-90
2022/05/05 01:55:33;;;;;;;22.30;9.15;;;;;;;;;;6129070;23;20020;-91
2022/05/05 01:58:05;;;;;;;20.10;9.40;;;;;;;;;;6129571;23;20233;-91
2022/05/05 02:00:31;;;;;;;20.02;9.55;;;;;;;;;;6127300;23;20021;-90
2022/05/05 02:02:58;;;;;;;20.73;9.80;;;;;;;;;;6105400;23;20008;-90
2022/05/05 02:05:26;;;;;;;18.13;9.73;;;;;;;;;;6106356;23;20092;-90
2022/05/05 02:07:55;;;;;;;15.23;9.10;;;;;;;;;;6127485;23;20013;-90
2022/05/05 02:10:22;;;;;;;19.80;9.63;;;;;;;;;;6128485;23;20668;-90
2022/05/05 02:12:51;;;;;;;15.98;9.30;;;;;;;;;;6128145;23;20017;-91
2022/05/05 02:15:17;;;;;;;19.10;9.60;;;;;;;;;;6127785;23;20064;-91
2022/05/05 02:18:24;;;;;;;17.77;10.52;;;;;;;;;;6128180;23;20017;-91
2022/05/05 02:21:26;;;;;;;20.35;10.75;;;;;;;;;;6127970;23;20458;-90
2022/05/05 02:27:11;;;;;;;15.65;9.68;;;;;;;;;;6082419;23;20096;-91
2022/05/05 02:29:37;;;;;;;22.75;10.73;;;;;;;;;;6129734;23;20059;-91
2022/05/05 02:32:04;;;;;;;17.00;10.10;;;;;;;;;;6128705;23;20099;-91
2022/05/05 02:34:30;;;;;;;13.68;9.57;;;;;;;;;;6126276;23;20028;-91
2022/05/05 02:39:41;;;;;;;20.25;9.88;;;;;;;;;;6129603;23;20028;-91
2022/05/05 02:42:10;;;;;;;15.02;9.93;;;;;;;;;;6102922;23;20441;-90
2022/05/05 02:44:37;;;;;;;24.55;9.70;;;;;;;;;;6102347;23;20017;-90
2022/05/05 02:47:06;;;;;;;14.98;9.23;;;;;;;;;;6125643;23;20386;-90
2022/05/05 02:49:32;;;;;;;17.83;10.95;;;;;;;;;;6126146;23;20882;-90
2022/05/05 02:51:58;;;;;;;19.10;10.07;;;;;;;;;;6103032;23;20036;-90
2022/05/05 02:57:08;;;;;;;18.40;10.63;;;;;;;;;;6131073;23;20017;-91
2022/05/05 02:59:37;;;;;;;20.10;9.98;;;;;;;;;;6129634;23;20696;-91
2022/05/05 03:02:04;;;;;;;16.95;10.70;;;;;;;;;;6104551;23;20104;-91
2022/05/05 03:04:30;;;;;;;16.75;9.70;;;;;;;;;;6126656;23;20020;-91
2022/05/05 03:06:56;;;;;;;20.33;10.48;;;;;;;;;;6125514;23;20069;-92
2022/05/05 03:09:22;;;;;;;22.58;10.95;;;;;;;;;;6128866;23;20013;-90
